sensor_id;sensor_type;location;lat;lon;timestamp;temperature;humidity
56308;DHT22;42217;50.422;7.210;2023-11-19T00:02:16;10.30;99.90
56308;DHT22;42217;50.422;7.210;2023-11-19T00:04:42;10.30;99.90
56308;DHT22;42217;50.422;7.210;2023-11-19T00:07:08;10.30;99.90
56308;DHT22;42217;50.422;7.210;2023-11-19T00:09:36;10.20;99.90
56308;DHT22;42217;50.422;7.210;2023-11-19T00:12:06;10.20;99.90
56308;DHT22;42217;50.422;7.210;2023-11-19T00:14:33;10.30;99.90
56308;DHT22;42217;50.422;7.210;2023-11-19T00:16:59;10.30;99.90
56308;DHT22;42217;50.422;7.210;2023-11-19T00:19:24;10.40;99.90
56308;DHT22;42217;50.422;7.210;2023-11-19T00:21:51;10.30;99.90
56308;DHT22;42217;50.422;7.210;2023-11-19T00:24:17;10.40;99.90
56308;DHT22;42217;50.422;7.210;2023-11-19T00:26:43;10.40;99.90
56308;DHT22;42217;50.422;7.210;2023-11-19T00:29:09;10.40;99.90
56308;DHT22;42217;50.422;7.210;2023-11-19T00:31:36;10.40;99.90
56308;DHT22;42217;50.422;7.210;2023-11-19T00:34:02;10.40;99.90
56308;DHT22;42217;50.422;7.210;2023-11-19T00:36:28;10.40;99.90
56308;DHT22;42217;50.422;7.210;2023-11-19T00:38:54;10.40;99.90
56308;DHT22;42217;50.422;7.210;2023-11-19T00:41:20;10.50;99.90
56308;DHT22;42217;50.422;7.210;2023-11-19T00:43:46;10.50;99.90
56308;DHT22;42217;50.422;7.210;2023-11-19T00:46:11;10.60;99.90
56308;DHT22;42217;50.422;7.210;2023-11-19T00:48:37;10.60;99.90
56308;DHT22;42217;50.422;7.210;2023-11-19T00:51:03;10.60;99.90
56308;DHT22;42217;50.422;7.210;2023-11-19T00:53:30;10.50;99.90
56308;DHT22;42217;50.422;7.210;2023-11-19T00:55:56;10.50;99.90
56308;DHT22;42217;50.422;7.210;2023-11-19T00:58:22;10.50;99.90
56308;DHT22;42217;50.422;7.210;2023-11-19T01:00:48;10.50;99.90
56308;DHT22;42217;50.422;7.210;2023-11-19T01:03:13;10.50;99.90
56308;DHT22;42217;50.422;7.210;2023-11-19T01:05:41;10.50;99.90
56308;DHT22;42217;50.422;7.210;2023-11-19T01:08:07;10.60;99.90
56308;DHT22;42217;50.422;7.210;2023-11-19T01:10:33;10.60;99.90
56308;DHT22;42217;50.422;7.210;2023-11-19T01:12:59;10.60;99.90
56308;DHT22;42217;50.422;7.210;2023-11-19T01:15:25;10.60;99.90
56308;DHT22;42217;50.422;7.210;2023-11-19T01:17:52;10.70;99.90
56308;DHT22;42217;50.422;7.210;2023-11-19T01:20:17;10.60;99.90
56308;DHT22;42217;50.422;7.210;2023-11-19T01:22:43;10.70;99.90
56308;DHT22;42217;50.422;7.210;2023-11-19T01:25:10;10.70;99.90
56308;DHT22;42217;50.422;7.210;2023-11-19T01:27:35;10.70;99.90
56308;DHT22;42217;50.422;7.210;2023-11-19T01:30:02;10.70;99.90
56308;DHT22;42217;50.422;7.210;2023-11-19T01:32:31;10.70;99.90
56308;DHT22;42217;50.422;7.210;2023-11-19T01:34:57;10.60;99.90
56308;DHT22;42217;50.422;7.210;2023-11-19T01:37:23;10.50;99.90
56308;DHT22;42217;50.422;7.210;2023-11-19T01:39:49;10.50;99.90
56308;DHT22;42217;50.422;7.210;2023-11-19T01:42:14;10.50;99.90
56308;DHT22;42217;50.422;7.210;2023-11-19T01:44:41;10.50;99.90
56308;DHT22;42217;50.422;7.210;2023-11-19T01:47:08;10.50;99.90
56308;DHT22;42217;50.422;7.210;2023-11-19T01:49:34;10.60;99.90
56308;DHT22;42217;50.422;7.210;2023-11-19T01:52:00;10.60;99.90
56308;DHT22;42217;50.422;7.210;2023-11-19T01:54:26;10.50;99.90
56308;DHT22;42217;50.422;7.210;2023-11-19T01:56:56;10.50;99.90
56308;DHT22;42217;50.422;7.210;2023-11-19T01:59:23;10.40;99.90
56308;DHT22;42217;50.422;7.210;2023-11-19T02:01:55;10.40;99.90
56308;DHT22;42217;50.422;7.210;2023-11-19T02:04:21;10.30;99.90
56308;DHT22;42217;50.422;7.210;2023-11-19T02:06:48;10.20;99.90
56308;DHT22;42217;50.422;7.210;2023-11-19T02:09:17;10.20;99.90
56308;DHT22;42217;50.422;7.210;2023-11-19T02:11:45;10.20;99.90
56308;DHT22;42217;50.422;7.210;2023-11-19T02:14:15;10.40;99.90
56308;DHT22;42217;50.422;7.210;2023-11-19T02:16:41;10.30;99.90
56308;DHT22;42217;50.422;7.210;2023-11-19T02:19:06;10.40;99.90
56308;DHT22;42217;50.422;7.210;2023-11-19T02:21:33;10.50;99.90
56308;DHT22;42217;50.422;7.210;2023-11-19T02:23:59;10.50;99.90
56308;DHT22;42217;50.422;7.210;2023-11-19T02:26:29;10.50;99.90
56308;DHT22;42217;50.422;7.210;2023-11-19T02:28:58;10.50;99.90
56308;DHT22;42217;50.422;7.210;2023-11-19T02:31:24;10.60;99.90
56308;DHT22;42217;50.422;7.210;2023-11-19T02:33:50;10.60;99.90
56308;DHT22;42217;50.422;7.210;2023-11-19T02:36:15;10.50;99.90
56308;DHT22;42217;50.422;7.210;2023-11-19T02:38:42;10.40;99.90
56308;DHT22;42217;50.422;7.210;2023-11-19T02:41:08;10.40;99.90
56308;DHT22;42217;50.422;7.210;2023-11-19T02:43:36;10.30;99.90
56308;DHT22;42217;50.422;7.210;2023-11-19T02:46:05;10.40;99.90
56308;DHT22;42217;50.422;7.210;2023-11-19T02:48:35;10.60;99.90
56308;DHT22;42217;50.422;7.210;2023-11-19T02:51:01;10.60;99.90
56308;DHT22;42217;50.422;7.210;2023-11-19T02:53:29;10.70;99.90
56308;DHT22;42217;50.422;7.210;2023-11-19T02:55:55;10.60;99.90
56308;DHT22;42217;50.422;7.210;2023-11-19T02:58:27;10.60;99.90
56308;DHT22;42217;50.422;7.210;2023-11-19T03:00:54;10.80;99.90
56308;DHT22;42217;50.422;7.210;2023-11-19T03:03:26;10.90;99.90
56308;DHT22;42217;50.422;7.210;2023-11-19T03:06:07;10.80;99.90
56308;DHT22;42217;50.422;7.210;2023-11-19T03:08:35;10.90;99.90
56308;DHT22;42217;50.422;7.210;2023-11-19T03:11:01;10.90;99.90
56308;DHT22;42217;50.422;7.210;2023-11-19T03:13:27;11.00;99.90
56308;DHT22;42217;50.422;7.210;2023-11-19T03:15:53;10.90;99.90
56308;DHT22;42217;50.422;7.210;2023-11-19T03:18:21;10.80;99.90
56308;DHT22;42217;50.422;7.210;2023-11-19T03:20:47;10.80;99.90
56308;DHT22;42217;50.422;7.210;2023-11-19T03:23:13;10.90;99.90
56308;DHT22;42217;50.422;7.210;2023-11-19T03:25:39;11.00;99.90
56308;DHT22;42217;50.422;7.210;2023-11-19T03:28:04;11.10;99.90
56308;DHT22;42217;50.422;7.210;2023-11-19T03:30:31;11.10;99.90
56308;DHT22;42217;50.422;7.210;2023-11-19T03:32:57;11.00;99.90
56308;DHT22;42217;50.422;7.210;2023-11-19T03:35:23;11.00;99.90
56308;DHT22;42217;50.422;7.210;2023-11-19T03:37:49;11.00;99.90
56308;DHT22;42217;50.422;7.210;2023-11-19T03:40:16;11.00;99.90
56308;DHT22;42217;50.422;7.210;2023-11-19T03:42:42;11.00;99.90
56308;DHT22;42217;50.422;7.210;2023-11-19T03:45:08;11.00;99.90
56308;DHT22;42217;50.422;7.210;2023-11-19T03:47:36;10.90;99.90
56308;DHT22;42217;50.422;7.210;2023-11-19T03:50:02;11.00;99.90
56308;DHT22;42217;50.422;7.210;2023-11-19T03:52:29;10.90;99.90
56308;DHT22;42217;50.422;7.210;2023-11-19T03:54:55;10.90;99.90
56308;DHT22;42217;50.422;7.210;2023-11-19T03:57:21;11.00;99.90
56308;DHT22;42217;50.422;7.210;2023-11-19T03:59:47;11.10;99.90
56308;DHT22;42217;50.422;7.210;2023-11-19T04:02:13;11.30;99.90
56308;DHT22;42217;50.422;7.210;2023-11-19T04:04:39;11.40;99.90
56308;DHT22;42217;50.422;7.210;2023-11-19T04:07:05;11.40;99.90
56308;DHT22;42217;50.422;7.210;2023-11-19T04:09:55;11.60;99.90
56308;DHT22;42217;50.422;7.210;2023-11-19T04:12:21;11.70;99.90
56308;DHT22;42217;50.422;7.210;2023-11-19T04:14:47;11.80;99.90
56308;DHT22;42217;50.422;7.210;2023-11-19T04:17:13;11.80;99.90
56308;DHT22;42217;50.422;7.210;2023-11-19T04:19:38;11.90;99.90
56308;DHT22;42217;50.422;7.210;2023-11-19T04:22:07;11.80;99.90
56308;DHT22;42217;50.422;7.210;2023-11-19T04:24:33;11.70;99.90
56308;DHT22;42217;50.422;7.210;2023-11-19T04:26:59;11.60;99.90
56308;DHT22;42217;50.422;7.210;2023-11-19T04:29:25;11.60;99.90
56308;DHT22;42217;50.422;7.210;2023-11-19T04:31:50;11.50;99.90
56308;DHT22;42217;50.422;7.210;2023-11-19T04:34:16;11.50;99.90
56308;DHT22;42217;50.422;7.210;2023-11-19T04:36:42;11.60;99.90
56308;DHT22;42217;50.422;7.210;2023-11-19T04:39:09;11.60;99.90
56308;DHT22;42217;50.422;7.210;2023-11-19T04:41:35;11.70;99.90
56308;DHT22;42217;50.422;7.210;2023-11-19T04:44:02;11.70;99.90
56308;DHT22;42217;50.422;7.210;2023-11-19T04:46:27;11.90;99.90
56308;DHT22;42217;50.422;7.210;2023-11-19T04:48:53;12.00;99.90
56308;DHT22;42217;50.422;7.210;2023-11-19T04:51:18;11.90;99.90
56308;DHT22;42217;50.422;7.210;2023-11-19T04:53:44;12.10;99.90
56308;DHT22;42217;50.422;7.210;2023-11-19T04:56:10;12.20;99.90
56308;DHT22;42217;50.422;7.210;2023-11-19T04:58:36;12.10;99.90
56308;DHT22;42217;50.422;7.210;2023-11-19T05:01:03;11.90;99.90
56308;DHT22;42217;50.422;7.210;2023-11-19T05:03:32;11.70;99.90
56308;DHT22;42217;50.422;7.210;2023-11-19T05:05:59;11.70;99.90
56308;DHT22;42217;50.422;7.210;2023-11-19T05:08:24;11.60;99.90
56308;DHT22;42217;50.422;7.210;2023-11-19T05:10:50;11.60;99.90
56308;DHT22;42217;50.422;7.210;2023-11-19T05:13:16;11.60;99.90
56308;DHT22;42217;50.422;7.210;2023-11-19T05:15:42;11.70;99.90
56308;DHT22;42217;50.422;7.210;2023-11-19T05:18:08;11.60;99.90
56308;DHT22;42217;50.422;7.210;2023-11-19T05:20:34;11.60;99.90
56308;DHT22;42217;50.422;7.210;2023-11-19T05:23:00;11.50;99.90
56308;DHT22;42217;50.422;7.210;2023-11-19T05:25:29;11.20;99.90
56308;DHT22;42217;50.422;7.210;2023-11-19T05:27:55;11.30;99.90
56308;DHT22;42217;50.422;7.210;2023-11-19T05:30:21;11.30;99.90
56308;DHT22;42217;50.422;7.210;2023-11-19T05:32:46;11.20;99.90
56308;DHT22;42217;50.422;7.210;2023-11-19T05:35:12;11.00;99.90
56308;DHT22;42217;50.422;7.210;2023-11-19T05:37:38;10.90;99.90
56308;DHT22;42217;50.422;7.210;2023-11-19T05:40:04;11.20;99.90
56308;DHT22;42217;50.422;7.210;2023-11-19T05:42:33;11.50;99.90
56308;DHT22;42217;50.422;7.210;2023-11-19T05:44:59;11.50;99.90
56308;DHT22;42217;50.422;7.210;2023-11-19T05:47:25;11.60;99.90
56308;DHT22;42217;50.422;7.210;2023-11-19T05:49:50;11.60;99.90
56308;DHT22;42217;50.422;7.210;2023-11-19T05:52:16;11.40;99.90
56308;DHT22;42217;50.422;7.210;2023-11-19T05:54:41;11.10;99.90
56308;DHT22;42217;50.422;7.210;2023-11-19T05:57:07;11.10;99.90
56308;DHT22;42217;50.422;7.210;2023-11-19T05:59:36;11.00;99.90
56308;DHT22;42217;50.422;7.210;2023-11-19T06:02:02;11.10;99.90
56308;DHT22;42217;50.422;7.210;2023-11-19T06:04:28;11.10;99.90
56308;DHT22;42217;50.422;7.210;2023-11-19T06:06:54;11.00;99.90
56308;DHT22;42217;50.422;7.210;2023-11-19T06:09:24;10.90;99.90
56308;DHT22;42217;50.422;7.210;2023-11-19T06:11:51;10.80;99.90
56308;DHT22;42217;50.422;7.210;2023-11-19T06:14:18;10.90;99.90
56308;DHT22;42217;50.422;7.210;2023-11-19T06:16:43;11.00;99.90
56308;DHT22;42217;50.422;7.210;2023-11-19T06:19:09;10.90;99.90
56308;DHT22;42217;50.422;7.210;2023-11-19T06:21:36;10.90;99.90
56308;DHT22;42217;50.422;7.210;2023-11-19T06:24:02;10.80;99.90
56308;DHT22;42217;50.422;7.210;2023-11-19T06:26:28;10.70;99.90
56308;DHT22;42217;50.422;7.210;2023-11-19T06:28:54;10.70;99.90
56308;DHT22;42217;50.422;7.210;2023-11-19T06:31:20;10.60;99.90
56308;DHT22;42217;50.422;7.210;2023-11-19T06:33:46;10.90;99.90
56308;DHT22;42217;50.422;7.210;2023-11-19T06:36:14;11.00;99.90
56308;DHT22;42217;50.422;7.210;2023-11-19T06:38:42;11.20;99.90
56308;DHT22;42217;50.422;7.210;2023-11-19T06:41:08;11.20;99.90
56308;DHT22;42217;50.422;7.210;2023-11-19T06:43:35;11.10;99.90
56308;DHT22;42217;50.422;7.210;2023-11-19T06:46:02;11.10;99.90
56308;DHT22;42217;50.422;7.210;2023-11-19T06:48:28;11.00;99.90
56308;DHT22;42217;50.422;7.210;2023-11-19T06:50:53;11.00;99.90
56308;DHT22;42217;50.422;7.210;2023-11-19T06:53:19;11.00;99.90
56308;DHT22;42217;50.422;7.210;2023-11-19T06:55:44;11.00;99.90
56308;DHT22;42217;50.422;7.210;2023-11-19T06:58:11;10.90;99.90
56308;DHT22;42217;50.422;7.210;2023-11-19T07:00:37;11.10;99.90
56308;DHT22;42217;50.422;7.210;2023-11-19T07:03:03;11.20;99.90
56308;DHT22;42217;50.422;7.210;2023-11-19T07:05:36;11.20;99.90
56308;DHT22;42217;50.422;7.210;2023-11-19T07:08:04;11.00;99.90
56308;DHT22;42217;50.422;7.210;2023-11-19T07:10:29;10.90;99.90
56308;DHT22;42217;50.422;7.210;2023-11-19T07:12:56;10.80;99.90
56308;DHT22;42217;50.422;7.210;2023-11-19T07:15:22;10.60;99.90
56308;DHT22;42217;50.422;7.210;2023-11-19T07:17:48;10.60;99.90
56308;DHT22;42217;50.422;7.210;2023-11-19T07:20:14;10.50;99.90
56308;DHT22;42217;50.422;7.210;2023-11-19T07:22:43;10.50;99.90
56308;DHT22;42217;50.422;7.210;2023-11-19T07:25:14;10.70;99.90
56308;DHT22;42217;50.422;7.210;2023-11-19T07:27:40;10.80;99.90
56308;DHT22;42217;50.422;7.210;2023-11-19T07:30:06;10.80;99.90
56308;DHT22;42217;50.422;7.210;2023-11-19T07:32:35;10.70;99.90
56308;DHT22;42217;50.422;7.210;2023-11-19T07:35:00;10.60;99.90
56308;DHT22;42217;50.422;7.210;2023-11-19T07:37:26;10.70;99.90
56308;DHT22;42217;50.422;7.210;2023-11-19T07:39:52;10.80;99.90
56308;DHT22;42217;50.422;7.210;2023-11-19T07:42:17;10.80;99.90
56308;DHT22;42217;50.422;7.210;2023-11-19T07:44:43;11.10;99.90
56308;DHT22;42217;50.422;7.210;2023-11-19T07:47:09;11.10;99.90
56308;DHT22;42217;50.422;7.210;2023-11-19T07:49:35;11.00;99.90
56308;DHT22;42217;50.422;7.210;2023-11-19T07:52:01;11.10;99.90
56308;DHT22;42217;50.422;7.210;2023-11-19T07:54:28;11.10;99.90
56308;DHT22;42217;50.422;7.210;2023-11-19T07:56:54;10.90;99.90
56308;DHT22;42217;50.422;7.210;2023-11-19T07:59:20;10.90;99.90
56308;DHT22;42217;50.422;7.210;2023-11-19T08:01:46;10.90;99.90
56308;DHT22;42217;50.422;7.210;2023-11-19T08:04:12;11.00;99.90
56308;DHT22;42217;50.422;7.210;2023-11-19T08:06:37;11.10;99.90
56308;DHT22;42217;50.422;7.210;2023-11-19T08:09:03;11.10;99.90
56308;DHT22;42217;50.422;7.210;2023-11-19T08:11:29;11.00;99.90
56308;DHT22;42217;50.422;7.210;2023-11-19T08:13:55;11.10;99.90
56308;DHT22;42217;50.422;7.210;2023-11-19T08:16:20;11.20;99.90
56308;DHT22;42217;50.422;7.210;2023-11-19T08:18:46;11.10;99.90
56308;DHT22;42217;50.422;7.210;2023-11-19T08:21:12;11.10;99.90
56308;DHT22;42217;50.422;7.210;2023-11-19T08:23:38;11.10;99.90
56308;DHT22;42217;50.422;7.210;2023-11-19T08:26:05;11.20;99.90
56308;DHT22;42217;50.422;7.210;2023-11-19T08:28:30;11.10;99.90
56308;DHT22;42217;50.422;7.210;2023-11-19T08:30:57;11.10;99.90
56308;DHT22;42217;50.422;7.210;2023-11-19T08:33:24;11.20;99.90
56308;DHT22;42217;50.422;7.210;2023-11-19T08:35:49;11.20;99.90
56308;DHT22;42217;50.422;7.210;2023-11-19T08:38:15;11.30;99.90
56308;DHT22;42217;50.422;7.210;2023-11-19T08:40:41;11.30;99.90
56308;DHT22;42217;50.422;7.210;2023-11-19T08:43:07;11.20;99.90
56308;DHT22;42217;50.422;7.210;2023-11-19T08:45:32;11.20;99.90
56308;DHT22;42217;50.422;7.210;2023-11-19T08:47:58;11.20;99.90
56308;DHT22;42217;50.422;7.210;2023-11-19T08:50:24;11.30;99.90
56308;DHT22;42217;50.422;7.210;2023-11-19T08:52:49;11.30;99.90
56308;DHT22;42217;50.422;7.210;2023-11-19T08:55:15;11.20;99.90
56308;DHT22;42217;50.422;7.210;2023-11-19T08:57:40;11.20;99.90
56308;DHT22;42217;50.422;7.210;2023-11-19T09:00:07;11.20;99.90
56308;DHT22;42217;50.422;7.210;2023-11-19T09:02:34;11.30;99.90
56308;DHT22;42217;50.422;7.210;2023-11-19T09:05:01;11.40;99.90
56308;DHT22;42217;50.422;7.210;2023-11-19T09:07:27;11.40;99.90
56308;DHT22;42217;50.422;7.210;2023-11-19T09:09:53;11.50;99.90
56308;DHT22;42217;50.422;7.210;2023-11-19T09:12:18;11.50;99.90
56308;DHT22;42217;50.422;7.210;2023-11-19T09:14:44;11.50;99.90
56308;DHT22;42217;50.422;7.210;2023-11-19T09:17:11;11.50;99.90
56308;DHT22;42217;50.422;7.210;2023-11-19T09:19:37;11.60;99.90
56308;DHT22;42217;50.422;7.210;2023-11-19T09:22:03;11.50;99.90
56308;DHT22;42217;50.422;7.210;2023-11-19T09:24:29;11.70;99.90
56308;DHT22;42217;50.422;7.210;2023-11-19T09:26:54;11.70;99.90
56308;DHT22;42217;50.422;7.210;2023-11-19T09:29:21;11.80;99.90
56308;DHT22;42217;50.422;7.210;2023-11-19T09:31:47;11.80;99.90
56308;DHT22;42217;50.422;7.210;2023-11-19T09:34:13;11.80;99.90
56308;DHT22;42217;50.422;7.210;2023-11-19T09:36:38;11.90;99.90
56308;DHT22;42217;50.422;7.210;2023-11-19T09:39:12;11.90;99.90
56308;DHT22;42217;50.422;7.210;2023-11-19T09:41:43;11.90;99.90
56308;DHT22;42217;50.422;7.210;2023-11-19T09:44:10;11.90;99.90
56308;DHT22;42217;50.422;7.210;2023-11-19T09:46:41;12.00;99.90
56308;DHT22;42217;50.422;7.210;2023-11-19T09:49:08;12.00;99.90
56308;DHT22;42217;50.422;7.210;2023-11-19T09:51:38;12.00;99.90
56308;DHT22;42217;50.422;7.210;2023-11-19T09:54:04;12.00;99.90
56308;DHT22;42217;50.422;7.210;2023-11-19T09:56:29;12.00;99.90
56308;DHT22;42217;50.422;7.210;2023-11-19T09:58:56;12.10;99.90
56308;DHT22;42217;50.422;7.210;2023-11-19T10:01:21;12.10;99.90
56308;DHT22;42217;50.422;7.210;2023-11-19T10:03:48;12.20;99.90
56308;DHT22;42217;50.422;7.210;2023-11-19T10:06:15;12.20;99.90
56308;DHT22;42217;50.422;7.210;2023-11-19T10:08:43;12.20;99.90
56308;DHT22;42217;50.422;7.210;2023-11-19T10:11:09;12.20;99.90
56308;DHT22;42217;50.422;7.210;2023-11-19T10:13:38;12.30;99.90
56308;DHT22;42217;50.422;7.210;2023-11-19T10:16:08;12.30;99.90
56308;DHT22;42217;50.422;7.210;2023-11-19T10:18:34;12.40;99.90
56308;DHT22;42217;50.422;7.210;2023-11-19T10:21:06;12.30;99.90
56308;DHT22;42217;50.422;7.210;2023-11-19T10:23:51;12.30;99.90
56308;DHT22;42217;50.422;7.210;2023-11-19T10:26:18;12.30;99.90
56308;DHT22;42217;50.422;7.210;2023-11-19T10:28:46;12.50;99.90
56308;DHT22;42217;50.422;7.210;2023-11-19T10:31:16;12.60;99.90
56308;DHT22;42217;50.422;7.210;2023-11-19T10:33:42;12.60;99.90
56308;DHT22;42217;50.422;7.210;2023-11-19T10:36:11;12.50;99.90
56308;DHT22;42217;50.422;7.210;2023-11-19T10:38:38;12.60;99.90
56308;DHT22;42217;50.422;7.210;2023-11-19T10:41:04;12.50;99.90
56308;DHT22;42217;50.422;7.210;2023-11-19T10:43:31;12.50;99.90
56308;DHT22;42217;50.422;7.210;2023-11-19T10:46:13;12.60;99.90
56308;DHT22;42217;50.422;7.210;2023-11-19T10:48:39;12.60;99.90
56308;DHT22;42217;50.422;7.210;2023-11-19T10:51:06;12.60;99.90
56308;DHT22;42217;50.422;7.210;2023-11-19T10:53:37;12.40;99.90
56308;DHT22;42217;50.422;7.210;2023-11-19T10:56:06;12.40;99.90
56308;DHT22;42217;50.422;7.210;2023-11-19T10:58:36;12.30;99.90
56308;DHT22;42217;50.422;7.210;2023-11-19T11:01:20;12.30;99.90
56308;DHT22;42217;50.422;7.210;2023-11-19T11:03:51;12.30;99.90
56308;DHT22;42217;50.422;7.210;2023-11-19T11:06:19;12.40;99.90
56308;DHT22;42217;50.422;7.210;2023-11-19T11:08:48;12.50;99.90
56308;DHT22;42217;50.422;7.210;2023-11-19T11:11:15;12.60;99.90
56308;DHT22;42217;50.422;7.210;2023-11-19T11:13:47;12.60;99.90
56308;DHT22;42217;50.422;7.210;2023-11-19T11:16:16;12.60;99.90
56308;DHT22;42217;50.422;7.210;2023-11-19T11:18:45;12.60;99.90
56308;DHT22;42217;50.422;7.210;2023-11-19T11:21:15;12.60;99.90
56308;DHT22;42217;50.422;7.210;2023-11-19T11:23:56;12.60;99.90
56308;DHT22;42217;50.422;7.210;2023-11-19T11:29:48;12.70;99.90
56308;DHT22;42217;50.422;7.210;2023-11-19T11:35:30;12.50;99.90
56308;DHT22;42217;50.422;7.210;2023-11-19T11:38:09;12.50;99.90
56308;DHT22;42217;50.422;7.210;2023-11-19T11:40:35;12.60;99.90
56308;DHT22;42217;50.422;7.210;2023-11-19T11:43:02;12.70;99.90
56308;DHT22;42217;50.422;7.210;2023-11-19T11:45:38;12.80;99.90
56308;DHT22;42217;50.422;7.210;2023-11-19T11:48:06;13.00;99.90
56308;DHT22;42217;50.422;7.210;2023-11-19T11:50:35;13.20;99.90
56308;DHT22;42217;50.422;7.210;2023-11-19T11:55:35;13.40;99.90
56308;DHT22;42217;50.422;7.210;2023-11-19T11:58:05;13.40;99.90
56308;DHT22;42217;50.422;7.210;2023-11-19T12:00:41;13.30;99.90
56308;DHT22;42217;50.422;7.210;2023-11-19T12:03:08;13.10;99.90
56308;DHT22;42217;50.422;7.210;2023-11-19T12:05:42;13.00;99.90
56308;DHT22;42217;50.422;7.210;2023-11-19T12:08:11;12.80;99.90
56308;DHT22;42217;50.422;7.210;2023-11-19T12:10:46;12.80;99.90
56308;DHT22;42217;50.422;7.210;2023-11-19T12:13:15;12.80;99.90
56308;DHT22;42217;50.422;7.210;2023-11-19T12:18:31;12.90;99.90
56308;DHT22;42217;50.422;7.210;2023-11-19T12:20:59;12.70;99.90
56308;DHT22;42217;50.422;7.210;2023-11-19T12:23:31;12.50;99.90
56308;DHT22;42217;50.422;7.210;2023-11-19T12:25:57;12.30;99.90
56308;DHT22;42217;50.422;7.210;2023-11-19T12:28:24;12.20;99.90
56308;DHT22;42217;50.422;7.210;2023-11-19T12:30:52;12.30;99.90
56308;DHT22;42217;50.422;7.210;2023-11-19T12:33:19;12.30;99.90
56308;DHT22;42217;50.422;7.210;2023-11-19T12:35:46;12.40;99.90
56308;DHT22;42217;50.422;7.210;2023-11-19T12:38:22;12.60;99.90
56308;DHT22;42217;50.422;7.210;2023-11-19T12:41:11;12.90;99.90
56308;DHT22;42217;50.422;7.210;2023-11-19T12:43:38;13.10;99.90
56308;DHT22;42217;50.422;7.210;2023-11-19T12:46:17;13.10;99.90
56308;DHT22;42217;50.422;7.210;2023-11-19T12:48:43;13.10;99.90
56308;DHT22;42217;50.422;7.210;2023-11-19T12:51:09;13.10;99.90
56308;DHT22;42217;50.422;7.210;2023-11-19T12:53:51;13.10;99.90
56308;DHT22;42217;50.422;7.210;2023-11-19T12:56:22;13.10;99.90
56308;DHT22;42217;50.422;7.210;2023-11-19T12:58:48;13.20;99.90
56308;DHT22;42217;50.422;7.210;2023-11-19T13:01:18;13.30;99.90
56308;DHT22;42217;50.422;7.210;2023-11-19T13:03:45;13.30;99.90
56308;DHT22;42217;50.422;7.210;2023-11-19T13:06:13;13.20;99.90
56308;DHT22;42217;50.422;7.210;2023-11-19T13:08:47;13.10;99.90
56308;DHT22;42217;50.422;7.210;2023-11-19T13:11:34;13.20;99.90
56308;DHT22;42217;50.422;7.210;2023-11-19T13:14:03;13.20;99.90
56308;DHT22;42217;50.422;7.210;2023-11-19T13:16:36;13.20;99.90
56308;DHT22;42217;50.422;7.210;2023-11-19T13:19:02;13.20;99.90
56308;DHT22;42217;50.422;7.210;2023-11-19T13:21:28;13.10;99.90
56308;DHT22;42217;50.422;7.210;2023-11-19T13:23:55;13.20;99.90
56308;DHT22;42217;50.422;7.210;2023-11-19T13:26:21;13.20;99.90
56308;DHT22;42217;50.422;7.210;2023-11-19T13:28:47;13.20;99.90
56308;DHT22;42217;50.422;7.210;2023-11-19T13:31:13;13.20;99.90
56308;DHT22;42217;50.422;7.210;2023-11-19T13:33:39;13.20;99.90
56308;DHT22;42217;50.422;7.210;2023-11-19T13:36:06;13.40;99.90
56308;DHT22;42217;50.422;7.210;2023-11-19T13:38:33;13.40;99.90
56308;DHT22;42217;50.422;7.210;2023-11-19T13:40:59;13.30;99.90
56308;DHT22;42217;50.422;7.210;2023-11-19T13:43:26;13.10;99.90
56308;DHT22;42217;50.422;7.210;2023-11-19T13:45:56;13.20;99.90
56308;DHT22;42217;50.422;7.210;2023-11-19T13:48:24;13.20;99.90
56308;DHT22;42217;50.422;7.210;2023-11-19T13:50:50;13.10;99.90
56308;DHT22;42217;50.422;7.210;2023-11-19T13:53:16;13.10;99.90
56308;DHT22;42217;50.422;7.210;2023-11-19T13:55:42;13.00;99.90
56308;DHT22;42217;50.422;7.210;2023-11-19T13:58:09;13.00;99.90
56308;DHT22;42217;50.422;7.210;2023-11-19T14:00:34;13.00;99.90
56308;DHT22;42217;50.422;7.210;2023-11-19T14:03:00;12.80;99.90
56308;DHT22;42217;50.422;7.210;2023-11-19T14:05:26;12.70;99.90
56308;DHT22;42217;50.422;7.210;2023-11-19T14:07:52;12.50;99.90
56308;DHT22;42217;50.422;7.210;2023-11-19T14:10:19;12.40;99.90
56308;DHT22;42217;50.422;7.210;2023-11-19T14:12:44;12.40;99.90
56308;DHT22;42217;50.422;7.210;2023-11-19T14:15:10;12.40;99.90
56308;DHT22;42217;50.422;7.210;2023-11-19T14:17:38;12.40;99.90
56308;DHT22;42217;50.422;7.210;2023-11-19T14:20:05;12.40;99.90
56308;DHT22;42217;50.422;7.210;2023-11-19T14:22:44;12.50;99.90
56308;DHT22;42217;50.422;7.210;2023-11-19T14:25:11;12.40;99.90
56308;DHT22;42217;50.422;7.210;2023-11-19T14:27:37;12.40;99.90
56308;DHT22;42217;50.422;7.210;2023-11-19T14:30:05;12.40;99.90
56308;DHT22;42217;50.422;7.210;2023-11-19T14:32:31;12.50;99.90
56308;DHT22;42217;50.422;7.210;2023-11-19T14:34:57;12.60;99.90
56308;DHT22;42217;50.422;7.210;2023-11-19T14:37:23;12.70;99.90
56308;DHT22;42217;50.422;7.210;2023-11-19T14:39:49;12.80;99.90
56308;DHT22;42217;50.422;7.210;2023-11-19T14:42:16;12.90;99.90
56308;DHT22;42217;50.422;7.210;2023-11-19T14:44:42;12.80;99.90
56308;DHT22;42217;50.422;7.210;2023-11-19T14:47:08;12.60;99.90
56308;DHT22;42217;50.422;7.210;2023-11-19T14:49:36;12.50;99.90
56308;DHT22;42217;50.422;7.210;2023-11-19T14:52:05;12.50;99.90
56308;DHT22;42217;50.422;7.210;2023-11-19T14:54:31;12.50;99.90
56308;DHT22;42217;50.422;7.210;2023-11-19T14:56:56;12.40;99.90
56308;DHT22;42217;50.422;7.210;2023-11-19T14:59:24;12.50;99.90
56308;DHT22;42217;50.422;7.210;2023-11-19T15:01:50;12.50;99.90
56308;DHT22;42217;50.422;7.210;2023-11-19T15:04:16;12.50;99.90
56308;DHT22;42217;50.422;7.210;2023-11-19T15:06:42;12.40;99.90
56308;DHT22;42217;50.422;7.210;2023-11-19T15:09:08;12.40;99.90
56308;DHT22;42217;50.422;7.210;2023-11-19T15:11:35;12.40;99.90
56308;DHT22;42217;50.422;7.210;2023-11-19T15:14:02;12.30;99.90
56308;DHT22;42217;50.422;7.210;2023-11-19T15:16:28;12.20;99.90
56308;DHT22;42217;50.422;7.210;2023-11-19T15:18:58;12.10;99.90
56308;DHT22;42217;50.422;7.210;2023-11-19T15:21:30;12.10;99.90
56308;DHT22;42217;50.422;7.210;2023-11-19T15:23:56;11.80;99.90
56308;DHT22;42217;50.422;7.210;2023-11-19T15:26:22;11.50;99.90
56308;DHT22;42217;50.422;7.210;2023-11-19T15:28:48;11.80;99.90
56308;DHT22;42217;50.422;7.210;2023-11-19T15:31:13;11.90;99.90
56308;DHT22;42217;50.422;7.210;2023-11-19T15:33:42;11.90;99.90
56308;DHT22;42217;50.422;7.210;2023-11-19T15:36:08;11.80;99.90
56308;DHT22;42217;50.422;7.210;2023-11-19T15:38:35;11.90;99.90
56308;DHT22;42217;50.422;7.210;2023-11-19T15:41:01;12.00;99.90
56308;DHT22;42217;50.422;7.210;2023-11-19T15:43:30;11.90;99.90